createdAt,value
2023-03-10T00:01:29.674Z,3.42
2023-03-10T00:03:59.267Z,3.40
2023-03-10T00:06:29.880Z,3.40
2023-03-10T00:08:59.601Z,3.41
2023-03-10T00:11:28.190Z,3.43
2023-03-10T00:13:58.010Z,3.46
2023-03-10T00:16:33.747Z,3.46
2023-03-10T00:19:04.585Z,3.40
2023-03-10T00:21:33.684Z,3.38
2023-03-10T00:24:02.074Z,3.36
2023-03-10T00:26:31.897Z,3.30
2023-03-10T00:29:00.366Z,3.30
2023-03-10T00:31:31.668Z,3.32
2023-03-10T00:34:00.917Z,3.35
2023-03-10T00:36:32.069Z,3.34
2023-03-10T00:39:01.348Z,3.32
2023-03-10T00:41:31.271Z,3.27
2023-03-10T00:44:00.803Z,3.27
2023-03-10T00:46:30.302Z,3.27
2023-03-10T00:48:59.090Z,3.21
2023-03-10T00:51:27.783Z,3.12
2023-03-10T00:53:57.190Z,3.07
2023-03-10T00:56:26.393Z,3.03
2023-03-10T00:59:01.528Z,3.03
2023-03-10T01:01:35.387Z,3.07
2023-03-10T01:04:06.291Z,3.08
2023-03-10T01:06:35.064Z,3.08
2023-03-10T01:09:05.800Z,3.07
2023-03-10T01:11:42.402Z,3.02
2023-03-10T01:14:12.909Z,2.95
2023-03-10T01:16:42.015Z,2.97
2023-03-10T01:19:10.898Z,3.05
2023-03-10T01:21:42.148Z,3.06
2023-03-10T01:24:14.640Z,3.06
2023-03-10T01:26:44.334Z,3.04
2023-03-10T01:29:13.952Z,2.98
2023-03-10T01:31:42.461Z,2.96
2023-03-10T01:34:12.347Z,2.98
2023-03-10T01:36:41.603Z,2.98
2023-03-10T01:39:11.873Z,2.93
2023-03-10T01:41:42.319Z,2.85
2023-03-10T01:44:14.569Z,2.79
2023-03-10T01:46:49.451Z,2.75
2023-03-10T01:49:28.018Z,2.75
2023-03-10T01:52:09.504Z,2.80
2023-03-10T01:54:48.845Z,2.83
2023-03-10T01:57:19.410Z,2.81
2023-03-10T01:59:47.754Z,2.75
2023-03-10T02:02:18.439Z,2.57
2023-03-10T02:04:50.359Z,2.59
2023-03-10T02:07:27.358Z,2.56
2023-03-10T02:09:57.452Z,2.53
2023-03-10T02:12:26.245Z,2.49
2023-03-10T02:15:02.256Z,2.48
2023-03-10T02:17:31.293Z,2.45
2023-03-10T02:20:28.150Z,2.38
2023-03-10T02:22:57.247Z,2.36
2023-03-10T02:25:34.436Z,2.28
2023-03-10T02:28:04.248Z,2.33
2023-03-10T02:30:39.182Z,2.27
2023-03-10T02:33:11.748Z,2.20
2023-03-10T02:35:40.226Z,2.17
2023-03-10T02:38:12.209Z,2.18
2023-03-10T02:40:42.943Z,2.24
2023-03-10T02:43:18.796Z,2.31
2023-03-10T02:45:48.751Z,2.34
2023-03-10T02:48:22.850Z,2.33
2023-03-10T02:50:52.026Z,2.33
2023-03-10T02:53:22.971Z,2.34
2023-03-10T02:55:53.908Z,2.31
2023-03-10T02:58:23.240Z,2.33
2023-03-10T03:00:51.922Z,2.42
2023-03-10T03:03:21.635Z,2.48
2023-03-10T03:05:50.600Z,2.46
2023-03-10T03:08:21.435Z,2.41
2023-03-10T03:10:50.227Z,2.38
2023-03-10T03:13:18.713Z,2.36
2023-03-10T03:15:48.314Z,2.33
2023-03-10T03:18:18.844Z,2.34
2023-03-10T03:20:47.738Z,2.32
2023-03-10T03:23:17.753Z,2.27
2023-03-10T03:25:46.652Z,2.22
2023-03-10T03:28:17.072Z,2.24
2023-03-10T03:30:46.791Z,2.19
2023-03-10T03:33:15.572Z,2.22
2023-03-10T03:35:45.330Z,2.17
2023-03-10T03:38:14.173Z,2.17
2023-03-10T03:40:45.216Z,2.19
2023-03-10T03:43:15.334Z,2.16
2023-03-10T03:45:44.138Z,2.13
2023-03-10T03:48:13.997Z,2.12
2023-03-10T03:50:42.732Z,2.07
2023-03-10T03:53:18.896Z,1.95
2023-03-10T03:55:47.680Z,1.87
2023-03-10T03:58:16.264Z,1.80
2023-03-10T04:00:44.974Z,1.97
2023-03-10T04:03:13.987Z,2.01
2023-03-10T04:05:44.706Z,2.03
2023-03-10T04:08:14.098Z,2.05
2023-03-10T04:10:42.674Z,2.05
2023-03-10T04:13:12.482Z,2.04
2023-03-10T04:15:41.323Z,1.96
2023-03-10T04:18:10.986Z,1.93
2023-03-10T04:20:39.771Z,2.03
2023-03-10T04:23:09.686Z,2.13
2023-03-10T04:25:43.392Z,2.15
2023-03-10T04:28:12.490Z,2.16
2023-03-10T04:30:45.573Z,2.18
2023-03-10T04:33:14.575Z,2.17
2023-03-10T04:35:44.243Z,2.14
2023-03-10T04:38:20.654Z,2.10
2023-03-10T04:40:56.478Z,2.03
2023-03-10T04:43:27.449Z,2.02
2023-03-10T04:45:56.799Z,2.02
2023-03-10T04:48:25.646Z,2.01
2023-03-10T04:51:03.962Z,1.98
2023-03-10T04:53:34.766Z,1.95
2023-03-10T04:56:08.398Z,1.95
2023-03-10T04:58:38.829Z,1.96
2023-03-10T05:01:11.045Z,1.96
2023-03-10T05:03:42.036Z,1.98
2023-03-10T05:06:15.844Z,2.01
2023-03-10T05:08:46.477Z,2.05
2023-03-10T05:11:15.060Z,2.05
2023-03-10T05:13:43.439Z,2.05
2023-03-10T05:16:17.718Z,2.05
2023-03-10T05:18:48.800Z,2.02
2023-03-10T05:21:22.101Z,2.01
2023-03-10T05:23:52.425Z,2.02
2023-03-10T05:26:21.725Z,2.04
2023-03-10T05:28:50.214Z,2.08
2023-03-10T05:31:28.945Z,2.11
2023-03-10T05:34:01.920Z,2.17
2023-03-10T05:36:30.810Z,2.21
2023-03-10T05:38:59.294Z,2.31
2023-03-10T05:41:28.700Z,2.39
2023-03-10T05:43:58.004Z,2.45
2023-03-10T05:46:28.781Z,2.47
2023-03-10T05:48:58.860Z,2.52
2023-03-10T05:51:28.779Z,2.58
2023-03-10T05:53:57.674Z,2.71
2023-03-10T05:56:28.540Z,2.82
2023-03-10T05:59:02.418Z,2.83
2023-03-10T06:01:33.155Z,2.96
2023-03-10T06:04:01.785Z,2.97
2023-03-10T06:06:31.967Z,3.02
2023-03-10T06:09:01.263Z,3.10
2023-03-10T06:11:33.946Z,3.08
2023-03-10T06:14:02.237Z,2.91
2023-03-10T06:16:31.980Z,2.70
2023-03-10T06:19:00.539Z,2.55
2023-03-10T06:21:29.718Z,2.51
2023-03-10T06:23:59.636Z,2.42
2023-03-10T06:26:28.438Z,2.39
2023-03-10T06:28:57.227Z,2.38
2023-03-10T06:31:26.258Z,2.30
2023-03-10T06:36:37.827Z,2.21
2023-03-10T06:39:07.064Z,2.25
2023-03-10T06:41:36.017Z,2.24
2023-03-10T06:44:04.707Z,2.21
2023-03-10T06:46:33.188Z,2.23
2023-03-10T06:49:01.786Z,2.26
2023-03-10T06:51:30.463Z,2.30
2023-03-10T06:53:58.848Z,2.35
2023-03-10T06:56:27.328Z,2.42
2023-03-10T06:58:56.759Z,2.55
2023-03-10T07:01:28.841Z,2.72
2023-03-10T07:03:58.010Z,2.86
2023-03-10T07:06:28.223Z,2.98
2023-03-10T07:09:16.363Z,3.10
2023-03-10T07:11:44.748Z,3.16
2023-03-10T07:14:13.740Z,3.20
2023-03-10T07:16:42.201Z,3.20
2023-03-10T07:19:10.808Z,3.33
2023-03-10T07:21:44.317Z,3.49
2023-03-10T07:24:13.407Z,3.51
2023-03-10T07:26:42.502Z,3.45
2023-03-10T07:29:11.706Z,3.42
2023-03-10T07:31:41.321Z,3.40
2023-03-10T07:34:11.222Z,3.40
2023-03-10T07:36:39.910Z,3.40
2023-03-10T07:39:08.497Z,3.38
2023-03-10T07:41:36.987Z,3.38
2023-03-10T07:44:06.080Z,3.46
2023-03-10T07:46:34.675Z,3.55
2023-03-10T07:49:05.203Z,3.58
2023-03-10T07:51:35.831Z,3.58
2023-03-10T07:54:04.719Z,3.64
2023-03-10T07:56:34.126Z,3.71
2023-03-10T07:59:02.736Z,3.79
2023-03-10T08:01:36.926Z,3.88
2023-03-10T08:04:06.661Z,3.92
2023-03-10T08:06:35.849Z,3.97
2023-03-10T08:09:04.443Z,4.02
2023-03-10T08:11:34.850Z,4.00
2023-03-10T08:14:04.829Z,4.00
2023-03-10T08:16:33.664Z,3.93
2023-03-10T08:19:02.348Z,3.92
2023-03-10T08:21:31.136Z,3.92
2023-03-10T08:23:59.619Z,3.98
2023-03-10T08:26:28.406Z,4.06
2023-03-10T08:28:57.619Z,4.14
2023-03-10T08:31:26.140Z,4.19
2023-03-10T08:33:56.929Z,4.24
2023-03-10T08:36:30.327Z,4.23
2023-03-10T08:39:00.867Z,4.13
2023-03-10T08:41:32.208Z,4.02
2023-03-10T08:44:03.249Z,3.96
2023-03-10T08:46:32.848Z,3.84
2023-03-10T08:49:04.414Z,3.81
2023-03-10T08:51:33.060Z,3.92
2023-03-10T08:54:01.892Z,4.01
2023-03-10T08:56:30.480Z,4.07
2023-03-10T08:59:00.907Z,4.15
2023-03-10T09:01:35.076Z,4.31
2023-03-10T09:04:04.562Z,4.45
2023-03-10T09:06:33.115Z,4.54
2023-03-10T09:09:01.908Z,4.66
2023-03-10T09:11:32.871Z,4.83
2023-03-10T09:14:02.316Z,5.04
2023-03-10T09:16:33.881Z,5.13
2023-03-10T09:19:02.813Z,5.11
2023-03-10T09:21:33.604Z,5.12
2023-03-10T09:24:02.337Z,5.14
2023-03-10T09:26:31.529Z,5.11
2023-03-10T09:29:05.359Z,5.08
2023-03-10T09:31:36.377Z,5.12
2023-03-10T09:34:06.330Z,5.17
2023-03-10T09:36:34.907Z,5.14
2023-03-10T09:39:03.670Z,5.08
2023-03-10T09:42:14.856Z,5.00
2023-03-10T09:45:03.718Z,4.95
2023-03-10T09:48:00.470Z,4.99
2023-03-10T09:50:35.605Z,5.02
2023-03-10T09:53:19.852Z,4.89
2023-03-10T09:55:49.149Z,4.93
2023-03-10T09:58:38.105Z,4.91
2023-03-10T10:01:07.726Z,4.94
2023-03-10T10:03:51.783Z,4.92
2023-03-10T10:06:32.033Z,4.92
2023-03-10T10:09:07.492Z,4.97
2023-03-10T10:11:37.036Z,5.04
2023-03-10T10:14:27.742Z,5.12
2023-03-10T10:17:06.471Z,5.21
2023-03-10T10:19:37.757Z,5.27
2023-03-10T10:22:27.442Z,5.35
2023-03-10T10:25:08.079Z,5.40
2023-03-10T10:27:37.919Z,5.43
2023-03-10T10:30:29.208Z,5.49
2023-03-10T10:33:11.136Z,5.57
2023-03-10T10:36:01.392Z,5.60
2023-03-10T10:38:31.761Z,5.64
2023-03-10T10:41:07.520Z,5.63
2023-03-10T10:43:44.308Z,5.62
2023-03-10T10:46:14.259Z,5.64
2023-03-10T10:48:43.500Z,5.63
2023-03-10T10:51:21.868Z,5.60
2023-03-10T10:53:50.710Z,5.66
2023-03-10T10:56:19.602Z,5.77
2023-03-10T10:59:04.892Z,5.88
2023-03-10T11:01:51.199Z,5.95
2023-03-10T11:04:20.071Z,5.98
2023-03-10T11:06:49.272Z,5.96
2023-03-10T11:09:21.848Z,5.95
2023-03-10T11:12:03.334Z,5.93
2023-03-10T11:15:14.375Z,5.91
2023-03-10T11:18:19.456Z,5.87
2023-03-10T11:21:12.854Z,5.85
2023-03-10T11:23:44.991Z,5.84
2023-03-10T11:26:17.787Z,5.79
2023-03-10T11:29:17.401Z,5.78
2023-03-10T11:32:00.537Z,5.80
2023-03-10T11:34:43.227Z,5.78
2023-03-10T11:37:18.365Z,5.78
2023-03-10T11:40:07.933Z,5.76
2023-03-10T11:42:41.444Z,5.79
2023-03-10T11:45:33.815Z,5.78
2023-03-10T11:48:05.032Z,5.75
2023-03-10T11:50:46.314Z,5.67
2023-03-10T11:53:24.625Z,5.58
2023-03-10T11:55:53.648Z,5.51
2023-03-10T11:58:42.889Z,5.52
2023-03-10T12:01:17.428Z,5.57
2023-03-10T12:03:54.015Z,5.58
2023-03-10T12:06:30.148Z,5.60
2023-03-10T12:08:59.758Z,5.67
2023-03-10T12:11:28.722Z,5.77
2023-03-10T12:14:04.603Z,5.89
2023-03-10T12:16:36.770Z,6.03
2023-03-10T12:19:06.394Z,6.22
2023-03-10T12:21:36.198Z,6.40
2023-03-10T12:24:04.888Z,6.57
2023-03-10T12:26:39.323Z,6.68
2023-03-10T12:29:22.838Z,6.73
2023-03-10T12:31:52.678Z,6.57
2023-03-10T12:34:22.803Z,6.53
2023-03-10T12:36:52.175Z,6.46
2023-03-10T12:39:29.663Z,6.33
2023-03-10T12:42:00.053Z,6.26
2023-03-10T12:44:36.357Z,6.23
2023-03-10T12:47:39.130Z,6.11
2023-03-10T12:50:42.337Z,6.08
2023-03-10T12:53:39.087Z,6.40
2023-03-10T12:56:14.741Z,6.90
2023-03-10T12:58:47.858Z,7.17
2023-03-10T13:01:19.527Z,7.29
2023-03-10T13:03:51.210Z,7.33
2023-03-10T13:06:22.326Z,7.34
2023-03-10T13:08:59.445Z,7.38
2023-03-10T13:11:37.172Z,7.42
2023-03-10T13:14:17.248Z,7.50
2023-03-10T13:17:03.522Z,7.52
2023-03-10T13:19:34.796Z,7.38
2023-03-10T13:22:05.201Z,7.14
2023-03-10T13:24:36.610Z,6.97
2023-03-10T13:27:06.270Z,6.95
2023-03-10T13:29:34.640Z,7.03
2023-03-10T13:32:03.758Z,7.13
2023-03-10T13:34:33.283Z,7.32
2023-03-10T13:37:06.521Z,7.61
2023-03-10T13:39:35.224Z,7.79
2023-03-10T13:42:05.648Z,7.86
2023-03-10T13:44:38.820Z,7.89
2023-03-10T13:47:21.254Z,7.86
2023-03-10T13:49:51.682Z,7.87
2023-03-10T13:52:24.866Z,7.98
2023-03-10T13:55:10.664Z,8.34
2023-03-10T13:57:39.350Z,8.95
2023-03-10T14:00:16.248Z,9.49
2023-03-10T14:02:47.901Z,10.09
2023-03-10T14:05:39.616Z,10.69
2023-03-10T14:08:25.144Z,11.32
2023-03-10T14:10:53.474Z,11.77
2023-03-10T14:13:45.198Z,12.16
2023-03-10T14:16:13.799Z,12.56
2023-03-10T14:18:51.382Z,12.84
2023-03-10T14:21:27.438Z,13.09
2023-03-10T14:23:57.563Z,13.13
2023-03-10T14:26:26.657Z,13.07
2023-03-10T14:28:55.241Z,13.20
2023-03-10T14:31:24.434Z,13.32
2023-03-10T14:33:53.028Z,13.48
2023-03-10T14:36:21.860Z,13.74
2023-03-10T14:38:52.676Z,14.08
2023-03-10T14:41:23.948Z,14.49
2023-03-10T14:43:52.386Z,14.86
2023-03-10T14:46:21.105Z,15.00
2023-03-10T14:48:50.572Z,15.16
2023-03-10T14:51:34.522Z,15.32
2023-03-10T14:54:03.962Z,15.23
2023-03-10T14:56:34.350Z,15.17
2023-03-10T14:59:03.254Z,15.31
2023-03-10T15:01:31.994Z,15.42
2023-03-10T15:04:01.242Z,15.40
2023-03-10T15:06:30.534Z,15.53
2023-03-10T15:09:05.172Z,15.68
2023-03-10T15:11:37.664Z,15.63
2023-03-10T15:14:15.939Z,15.67
2023-03-10T15:16:51.193Z,15.48
2023-03-10T15:19:22.644Z,15.23
2023-03-10T15:21:51.025Z,15.00
2023-03-10T15:24:19.510Z,14.79
2023-03-10T15:26:51.596Z,14.61
2023-03-10T15:29:23.858Z,14.37
2023-03-10T15:31:53.153Z,14.08
2023-03-10T15:34:21.539Z,13.75
2023-03-10T15:36:51.653Z,13.39
2023-03-10T15:39:30.969Z,13.01
2023-03-10T15:42:00.696Z,12.40
2023-03-10T15:44:30.750Z,11.63
2023-03-10T15:47:00.365Z,10.89
2023-03-10T15:49:30.252Z,10.27
2023-03-10T15:51:58.927Z,9.69
2023-03-10T15:54:27.823Z,9.22
2023-03-10T15:56:56.633Z,8.86
2023-03-10T15:59:28.185Z,8.56
2023-03-10T16:01:57.359Z,8.25
2023-03-10T16:04:26.057Z,7.94
2023-03-10T16:06:55.864Z,7.64
2023-03-10T16:09:24.448Z,7.36
2023-03-10T16:11:54.368Z,7.15
2023-03-10T16:14:26.844Z,6.93
2023-03-10T16:16:58.813Z,6.81
2023-03-10T16:19:28.212Z,6.66
2023-03-10T16:21:56.582Z,6.51
2023-03-10T16:24:25.175Z,6.51
2023-03-10T16:26:53.550Z,6.40
2023-03-10T16:29:22.032Z,6.30
2023-03-10T16:31:50.722Z,6.19
2023-03-10T16:34:21.246Z,6.07
2023-03-10T16:36:51.673Z,5.94
2023-03-10T16:39:20.156Z,5.85
2023-03-10T16:41:50.078Z,5.80
2023-03-10T16:44:18.654Z,5.73
2023-03-10T16:46:47.158Z,5.66
2023-03-10T16:49:16.851Z,5.56
2023-03-10T16:51:46.218Z,5.46
2023-03-10T16:54:17.025Z,5.42
2023-03-10T16:56:47.938Z,5.38
2023-03-10T16:59:21.686Z,5.33
2023-03-10T17:01:50.831Z,5.27
2023-03-10T17:04:19.825Z,5.21
2023-03-10T17:06:52.718Z,5.17
2023-03-10T17:09:21.189Z,5.17
2023-03-10T17:11:54.815Z,5.16
2023-03-10T17:14:24.206Z,5.12
2023-03-10T17:16:54.496Z,5.06
2023-03-10T17:19:28.906Z,5.04
2023-03-10T17:21:58.476Z,5.05
2023-03-10T17:24:27.562Z,5.02
2023-03-10T17:26:57.164Z,4.99
2023-03-10T17:29:26.053Z,4.94
2023-03-10T17:31:59.325Z,4.93
2023-03-10T17:34:29.692Z,4.99
2023-03-10T17:36:58.152Z,5.00
2023-03-10T17:39:27.975Z,4.98
2023-03-10T17:41:56.453Z,4.96
2023-03-10T17:44:27.592Z,4.91
2023-03-10T17:46:58.839Z,4.89
2023-03-10T17:49:27.526Z,4.89
2023-03-10T17:51:56.109Z,4.89
2023-03-10T17:54:24.766Z,4.86
2023-03-10T17:56:54.412Z,4.87
2023-03-10T17:59:23.502Z,4.89
2023-03-10T18:01:53.227Z,4.93
2023-03-10T18:04:21.805Z,4.90
2023-03-10T18:06:51.616Z,4.86
2023-03-10T18:09:40.167Z,4.88
2023-03-10T18:12:08.750Z,4.86
2023-03-10T18:14:37.957Z,4.90
2023-03-10T18:17:06.845Z,4.95
2023-03-10T18:19:52.532Z,4.96
2023-03-10T18:22:22.240Z,4.95
2023-03-10T18:24:51.271Z,4.96
2023-03-10T18:27:19.720Z,4.95
2023-03-10T18:29:48.420Z,5.00
2023-03-10T18:32:18.881Z,5.05
2023-03-10T18:34:49.167Z,5.09
2023-03-10T18:37:17.639Z,5.11
2023-03-10T18:39:51.856Z,5.12
2023-03-10T18:42:22.099Z,5.00
2023-03-10T18:44:51.075Z,5.08
2023-03-10T18:47:20.191Z,5.12
2023-03-10T18:49:48.860Z,5.16
2023-03-10T18:54:17.664Z,5.20
2023-03-10T18:56:51.682Z,5.17
2023-03-10T18:59:20.260Z,5.17
2023-03-10T19:01:49.086Z,5.16
2023-03-10T19:04:17.630Z,5.23
2023-03-10T19:06:46.216Z,5.24
2023-03-10T19:09:15.105Z,5.21
2023-03-10T19:11:43.847Z,5.20
2023-03-10T19:14:13.197Z,5.16
2023-03-10T19:16:42.904Z,5.12
2023-03-10T19:19:12.104Z,5.14
2023-03-10T19:21:44.071Z,5.15
2023-03-10T19:24:12.551Z,5.14
2023-03-10T19:26:41.746Z,5.15
2023-03-10T19:29:10.228Z,5.16
2023-03-10T19:31:41.632Z,5.15
2023-03-10T19:34:10.466Z,5.17
2023-03-10T19:36:38.849Z,5.21
2023-03-10T19:39:07.332Z,5.23
2023-03-10T19:41:36.425Z,5.25
2023-03-10T19:44:06.646Z,5.24
2023-03-10T19:46:35.886Z,5.22
2023-03-10T19:49:06.891Z,5.20
2023-03-10T19:51:35.685Z,5.23
2023-03-10T19:54:05.740Z,5.26
2023-03-10T19:56:37.552Z,5.29
2023-03-10T19:59:06.753Z,5.32
2023-03-10T20:01:37.280Z,5.34
2023-03-10T20:04:05.760Z,5.36
2023-03-10T20:06:34.453Z,5.41
2023-03-10T20:09:09.172Z,5.50
2023-03-10T20:11:39.092Z,5.53
2023-03-10T20:14:07.994Z,5.54
2023-03-10T20:16:36.487Z,5.53
2023-03-10T20:19:05.045Z,5.53
2023-03-10T20:21:34.147Z,5.54
2023-03-10T20:24:04.901Z,5.58
2023-03-10T20:26:34.092Z,5.64
2023-03-10T20:29:02.460Z,5.67
2023-03-10T20:31:34.362Z,5.69
2023-03-10T20:34:04.045Z,5.69
2023-03-10T20:36:32.405Z,5.67
2023-03-10T20:39:03.562Z,5.66
2023-03-10T20:41:31.931Z,5.63
2023-03-10T20:44:03.083Z,5.66
2023-03-10T20:46:32.067Z,5.76
2023-03-10T20:49:00.649Z,5.80
2023-03-10T20:51:29.128Z,5.80
2023-03-10T20:53:57.527Z,5.80
2023-03-10T20:56:26.213Z,5.81
2023-03-10T20:59:02.388Z,5.80
2023-03-10T21:01:31.547Z,5.78
2023-03-10T21:04:00.354Z,5.81
2023-03-10T21:06:30.185Z,5.88
2023-03-10T21:09:06.121Z,5.90
2023-03-10T21:11:37.355Z,5.91
2023-03-10T21:14:06.554Z,5.92
2023-03-10T21:16:39.871Z,5.90
2023-03-10T21:19:13.558Z,5.90
2023-03-10T21:21:43.165Z,5.89
2023-03-10T21:24:11.550Z,5.93
2023-03-10T21:26:45.043Z,5.99
2023-03-10T21:29:15.168Z,6.01
2023-03-10T21:31:50.425Z,6.01
2023-03-10T21:34:20.013Z,6.00
2023-03-10T21:36:48.394Z,5.99
2023-03-10T21:39:16.773Z,5.97
2023-03-10T21:41:45.665Z,5.95
2023-03-10T21:44:14.043Z,5.96
2023-03-10T21:46:42.901Z,6.01
2023-03-10T21:49:13.062Z,5.98
2023-03-10T21:51:42.255Z,6.07
2023-03-10T21:54:10.646Z,6.08
2023-03-10T21:56:40.448Z,6.05
2023-03-10T21:59:08.953Z,6.03
2023-03-10T22:01:38.882Z,6.02
2023-03-10T22:04:07.780Z,5.97
2023-03-10T22:06:36.213Z,5.98
2023-03-10T22:09:07.067Z,6.09
2023-03-10T22:11:36.557Z,6.13
2023-03-10T22:14:06.578Z,6.16
2023-03-10T22:16:34.955Z,6.19
2023-03-10T22:19:09.886Z,6.22
2023-03-10T22:21:40.112Z,6.25
2023-03-10T22:24:08.905Z,6.21
2023-03-10T22:26:40.249Z,6.36
2023-03-10T22:29:08.632Z,6.42
2023-03-10T22:31:37.443Z,6.48
2023-03-10T22:34:05.999Z,6.53
2023-03-10T22:36:34.480Z,6.58
2023-03-10T22:39:03.577Z,6.59
2023-03-10T22:41:32.058Z,6.59
2023-03-10T22:44:00.643Z,6.56
2023-03-10T22:46:29.262Z,6.59
2023-03-10T22:48:58.395Z,6.64
2023-03-10T22:51:26.909Z,6.65
2023-03-10T22:53:58.838Z,6.63
2023-03-10T22:56:27.870Z,6.60
2023-03-10T22:58:56.143Z,6.58
2023-03-10T23:01:24.546Z,6.53
2023-03-10T23:03:53.417Z,6.51
2023-03-10T23:06:26.518Z,6.44
2023-03-10T23:08:57.159Z,6.40
2023-03-10T23:11:25.829Z,6.43
2023-03-10T23:13:55.782Z,6.44
2023-03-10T23:16:24.702Z,6.43
2023-03-10T23:18:53.633Z,6.41
2023-03-10T23:21:22.116Z,6.37
2023-03-10T23:23:50.609Z,6.35
2023-03-10T23:26:19.004Z,6.34
2023-03-10T23:28:47.768Z,6.32
2023-03-10T23:31:17.324Z,6.34
2023-03-10T23:33:45.983Z,6.37
2023-03-10T23:36:14.630Z,6.37
2023-03-10T23:38:43.239Z,6.35
2023-03-10T23:41:12.134Z,6.35
2023-03-10T23:43:40.813Z,6.34
2023-03-10T23:46:10.649Z,6.33
2023-03-10T23:48:39.620Z,6.30
2023-03-10T23:51:16.770Z,6.28
2023-03-10T23:53:46.730Z,6.24
2023-03-10T23:56:15.306Z,6.29
2023-03-10T23:58:43.691Z,6.33
